Time;durP1;ratioP1;P1;durP2;ratioP2;P2;SDS_P1;SDS_P2;PMS_P1;PMS_P2;Temp;Humidity;BMP_temperature;BMP_pressure;BME280_temperature;BME280_humidity;BME280_pressure;Samples;Min_cycle;Max_cycle;Signal;HPM_P1;HPM_P2
2021/07/21 00:02:10;;;;;;;14.80;9.68;;;;;;;16.39;95.27;102055.41;5070770;28;20032;-74
2021/07/21 00:04:36;;;;;;;16.13;9.32;;;;;;;16.38;95.48;102060.84;5074029;28;20074;-74
2021/07/21 00:07:02;;;;;;;18.98;10.18;;;;;;;16.38;95.39;102061.69;5074872;28;20260;-74
2021/07/21 00:09:27;;;;;;;14.00;8.82;;;;;;;16.37;96.06;102061.84;5057936;28;20471;-75
2021/07/21 00:14:39;;;;;;;14.05;8.95;;;;;;;16.32;96.22;102052.53;5091105;27;20134;-74
2021/07/21 00:17:08;;;;;;;17.25;9.15;;;;;;;16.30;96.34;102057.16;5095055;28;20400;-73
2021/07/21 00:22:18;;;;;;;15.25;9.50;;;;;;;16.30;96.68;102048.38;5088630;28;20031;-74
2021/07/21 00:24:44;;;;;;;14.32;8.80;;;;;;;16.30;96.59;102048.38;5097317;27;20046;-73
2021/07/21 00:27:11;;;;;;;14.20;9.35;;;;;;;16.35;96.52;102049.59;5054110;28;20158;-74
2021/07/21 00:29:37;;;;;;;14.30;9.00;;;;;;;16.27;96.83;102044.22;5072219;28;20511;-74
2021/07/21 00:32:04;;;;;;;15.52;8.77;;;;;;;16.27;96.99;102051.31;5079607;28;20031;-75
2021/07/21 00:34:30;;;;;;;17.45;9.77;;;;;;;16.26;97.19;102047.03;5071737;28;20124;-74
2021/07/21 00:36:56;;;;;;;12.27;9.02;;;;;;;16.22;97.52;102043.00;5108265;28;20040;-74
2021/07/21 00:39:22;;;;;;;16.02;9.80;;;;;;;16.21;97.81;102042.19;5091188;28;20082;-74
2021/07/21 00:41:50;;;;;;;16.58;9.68;;;;;;;16.24;97.50;102041.88;5073725;28;20126;-75
2021/07/21 00:44:16;;;;;;;15.90;9.55;;;;;;;16.25;97.43;102045.34;5073634;28;20043;-73
2021/07/21 00:46:46;;;;;;;15.10;9.68;;;;;;;16.23;97.71;102042.84;5074534;28;20114;-73
2021/07/21 00:49:12;;;;;;;15.70;9.88;;;;;;;16.32;97.74;102043.75;5073890;28;20114;-73
2021/07/21 00:51:39;;;;;;;18.65;10.63;;;;;;;16.23;98.13;102034.91;5088827;28;20420;-74
2021/07/21 00:54:04;;;;;;;13.27;9.30;;;;;;;16.29;97.90;102038.78;5057116;28;20044;-75
2021/07/21 00:56:32;;;;;;;17.05;9.35;;;;;;;16.29;98.22;102036.13;5056066;28;20046;-74
2021/07/21 00:58:58;;;;;;;16.02;9.73;;;;;;;16.28;98.01;102034.47;5087423;28;20477;-73
2021/07/21 01:01:24;;;;;;;15.68;9.63;;;;;;;16.32;98.49;102034.00;5050931;28;20071;-73
2021/07/21 01:03:50;;;;;;;15.68;10.32;;;;;;;16.25;99.40;102040.06;5089300;28;20401;-74
2021/07/21 01:06:18;;;;;;;15.48;10.57;;;;;;;16.31;100.00;102036.78;5053679;28;20127;-75
2021/07/21 01:08:45;;;;;;;17.42;10.63;;;;;;;16.29;100.00;102047.56;5090622;28;20572;-74
2021/07/21 01:11:28;;;;;;;14.65;10.55;;;;;;;16.29;100.00;102041.41;5090597;28;20032;-74
2021/07/21 01:14:11;;;;;;;16.45;11.40;;;;;;;16.33;100.00;102048.91;5078706;28;20032;-75
2021/07/21 01:16:50;;;;;;;18.60;11.95;;;;;;;16.19;100.00;102049.44;5061479;28;20044;-76
2021/07/21 01:19:32;;;;;;;19.23;12.57;;;;;;;16.25;100.00;102055.94;5073852;27;20384;-75
2021/07/21 01:22:10;;;;;;;26.40;13.20;;;;;;;16.18;100.00;102049.59;5087431;28;20546;-76
2021/07/21 01:24:58;;;;;;;16.35;12.43;;;;;;;16.12;100.00;102048.38;5073809;28;20043;-73
2021/07/21 01:27:32;;;;;;;21.42;12.68;;;;;;;16.07;100.00;102051.50;5087341;28;20028;-73
2021/07/21 01:30:21;;;;;;;17.88;12.20;;;;;;;16.06;100.00;102055.09;5083795;28;20031;-74
2021/07/21 01:33:00;;;;;;;19.30;13.02;;;;;;;16.00;100.00;102050.41;5072126;28;20507;-73
2021/07/21 01:35:30;;;;;;;;;;;;;;;15.96;100.00;102054.34;5090153;28;20839;-76
2021/07/21 01:38:07;;;;;;;20.35;11.80;;;;;;;15.91;100.00;102060.09;5057153;28;19911;-74
2021/07/21 01:40:40;;;;;;;17.98;12.07;;;;;;;15.91;100.00;102052.16;5099486;28;20039;-73
2021/07/21 01:43:10;;;;;;;20.38;13.07;;;;;;;15.88;100.00;102055.09;5069544;28;20668;-77
2021/07/21 01:45:38;;;;;;;18.98;12.35;;;;;;;15.86;100.00;102056.22;5069060;28;20038;-75
2021/07/21 01:48:07;;;;;;;19.88;12.55;;;;;;;15.84;100.00;102059.03;5069756;28;20621;-75
2021/07/21 01:50:33;;;;;;;17.60;12.55;;;;;;;15.86;100.00;102057.06;5076340;28;20051;-74
2021/07/21 01:53:00;;;;;;;19.40;12.85;;;;;;;15.83;100.00;102049.41;5089099;28;20043;-75
2021/07/21 01:55:27;;;;;;;20.00;12.35;;;;;;;15.84;100.00;102050.25;5056320;28;20031;-74
2021/07/21 01:57:55;;;;;;;16.67;12.30;;;;;;;15.80;100.00;102051.53;5067798;28;20119;-76
2021/07/21 02:00:43;;;;;;;19.45;12.18;;;;;;;15.77;100.00;102050.03;5103169;28;20036;-75
2021/07/21 02:03:10;;;;;;;17.65;12.50;;;;;;;15.79;100.00;102058.66;5090370;28;20088;-74
2021/07/21 02:05:45;;;;;;;22.25;12.40;;;;;;;15.80;100.00;102054.19;5056690;28;20032;-74
2021/07/21 02:08:13;;;;;;;20.05;12.13;;;;;;;15.79;100.00;102053.34;5090102;28;20043;-74
2021/07/21 02:10:39;;;;;;;16.63;11.73;;;;;;;15.76;100.00;102045.69;5087963;28;20028;-74
2021/07/21 02:13:20;;;;;;;19.27;11.40;;;;;;;15.74;100.00;102051.13;5075002;28;20028;-74
2021/07/21 02:16:04;;;;;;;16.27;12.18;;;;;;;15.75;100.00;102052.81;5068531;28;20489;-75
2021/07/21 02:18:30;;;;;;;20.20;12.18;;;;;;;15.68;100.00;102048.25;5069070;28;20035;-74
2021/07/21 02:21:02;;;;;;;20.15;12.68;;;;;;;15.66;100.00;102050.19;5088625;28;20036;-75
2021/07/21 02:23:29;;;;;;;17.87;11.80;;;;;;;15.70;100.00;102055.03;5068855;28;20040;-75
2021/07/21 02:26:15;;;;;;;19.98;12.88;;;;;;;15.71;100.00;102048.78;5069327;28;20109;-73
2021/07/21 02:28:42;;;;;;;17.45;11.55;;;;;;;15.69;100.00;102045.44;5072564;28;20512;-74
2021/07/21 02:31:13;;;;;;;19.88;12.68;;;;;;;15.69;100.00;102042.81;5076434;28;20107;-75
2021/07/21 02:33:45;;;;;;;18.80;12.65;;;;;;;15.70;100.00;102044.44;5053023;28;20683;-75
2021/07/21 02:36:18;;;;;;;20.95;12.43;;;;;;;15.74;100.00;102045.84;5073725;28;20031;-75
2021/07/21 02:38:45;;;;;;;18.38;12.18;;;;;;;15.72;100.00;102044.31;5053919;28;20062;-75
2021/07/21 02:41:12;;;;;;;20.75;13.68;;;;;;;15.70;100.00;102041.81;5088756;28;20537;-75
2021/07/21 02:43:39;;;;;;;20.40;13.25;;;;;;;15.70;100.00;102048.91;5068868;28;20040;-75
2021/07/21 02:46:06;;;;;;;20.15;13.25;;;;;;;15.62;100.00;102038.25;5056656;28;20039;-75
2021/07/21 02:48:32;;;;;;;21.00;12.85;;;;;;;15.61;100.00;102044.50;5063700;28;20107;-74
2021/07/21 02:51:07;;;;;;;24.52;12.77;;;;;;;15.56;100.00;102044.97;5068500;28;20058;-75
2021/07/21 02:53:45;;;;;;;20.58;13.00;;;;;;;15.56;100.00;102037.88;5071874;28;20073;-75
2021/07/21 02:56:34;;;;;;;21.20;12.93;;;;;;;15.58;100.00;102043.00;5091806;28;20039;-74
2021/07/21 02:59:13;;;;;;;21.45;12.10;;;;;;;15.60;100.00;102045.50;5100733;28;20031;-74
2021/07/21 03:01:47;;;;;;;20.58;12.20;;;;;;;15.63;100.00;102050.50;5087594;28;20035;-74
2021/07/21 03:04:21;;;;;;;19.10;11.98;;;;;;;15.60;100.00;102040.22;5055295;28;20127;-76
2021/07/21 03:06:50;;;;;;;19.13;12.82;;;;;;;15.57;100.00;102046.63;5076611;28;20031;-75
2021/07/21 03:09:20;;;;;;;20.00;12.32;;;;;;;15.60;100.00;102045.50;5071890;28;20023;-73
2021/07/21 03:11:58;;;;;;;18.05;12.05;;;;;;;15.54;100.00;102042.47;5069808;28;20047;-74
2021/07/21 03:14:24;;;;;;;19.48;12.52;;;;;;;15.51;100.00;102044.56;5106813;28;20083;-75
2021/07/21 03:16:54;;;;;;;18.83;11.65;;;;;;;15.48;100.00;102048.34;5051948;28;20083;-75
2021/07/21 03:19:32;;;;;;;20.80;11.88;;;;;;;15.45;100.00;102046.00;5056015;28;20105;-74
2021/07/21 03:22:03;;;;;;;15.35;11.70;;;;;;;15.53;100.00;102053.19;5059076;28;20088;-73
2021/07/21 03:24:32;;;;;;;18.58;11.43;;;;;;;15.48;100.00;102040.44;5071069;28;20841;-75
2021/07/21 03:27:08;;;;;;;18.15;12.00;;;;;;;15.54;100.00;102046.94;5086099;28;20035;-75
2021/07/21 03:29:56;;;;;;;17.30;11.32;;;;;;;15.52;100.00;102044.44;5090777;28;20061;-75
2021/07/21 03:32:30;;;;;;;18.02;11.50;;;;;;;15.54;100.00;102050.41;5086894;28;20593;-75
2021/07/21 03:34:59;;;;;;;21.00;13.35;;;;;;;15.54;100.00;102046.94;5051295;28;20793;-74
2021/07/21 03:37:28;;;;;;;20.55;12.52;;;;;;;15.52;100.00;102047.06;5079904;28;20544;-75
2021/07/21 03:40:03;;;;;;;20.75;12.02;;;;;;;15.49;100.00;102054.47;5069269;28;20040;-74
2021/07/21 03:42:39;;;;;;;21.92;11.80;;;;;;;15.44;100.00;102041.66;5082279;28;20666;-76
2021/07/21 03:45:11;;;;;;;19.55;11.77;;;;;;;15.48;100.00;102050.16;5067355;28;20032;-74
2021/07/21 03:47:41;;;;;;;22.10;11.75;;;;;;;15.47;100.00;102048.50;5070351;28;20031;-74
2021/07/21 03:50:08;;;;;;;20.52;11.70;;;;;;;15.47;100.00;102049.31;5063991;28;20126;-73
2021/07/21 03:52:44;;;;;;;21.52;11.93;;;;;;;15.47;100.00;102051.13;5057105;28;20368;-77
2021/07/21 03:55:11;;;;;;;19.00;11.93;;;;;;;15.47;100.00;102048.50;5069236;28;20043;-74
2021/07/21 03:57:55;;;;;;;18.17;10.73;;;;;;;15.46;100.00;102052.94;5086573;28;20432;-75
2021/07/21 04:00:26;;;;;;;19.70;12.07;;;;;;;15.46;100.00;102052.94;5052151;28;20040;-73
2021/07/21 04:02:55;;;;;;;17.45;11.45;;;;;;;15.45;100.00;102053.94;5073777;28;20080;-75
2021/07/21 04:05:27;;;;;;;17.67;11.48;;;;;;;15.45;100.00;102050.47;5065361;28;20480;-75
2021/07/21 04:07:59;;;;;;;19.10;10.95;;;;;;;15.48;100.00;102058.06;5078404;28;20031;-75
2021/07/21 04:10:30;;;;;;;18.88;12.45;;;;;;;15.60;100.00;102061.38;5068132;28;20568;-74
2021/07/21 04:13:00;;;;;;;18.80;11.95;;;;;;;15.54;100.00;102057.50;5082138;28;20027;-74
2021/07/21 04:15:37;;;;;;;23.20;12.10;;;;;;;15.55;100.00;102064.44;5070887;28;20598;-73
2021/07/21 04:18:12;;;;;;;19.65;12.02;;;;;;;15.51;100.00;102055.97;5067722;28;20039;-74
2021/07/21 04:20:39;;;;;;;18.77;12.20;;;;;;;15.49;100.00;102060.56;5060294;28;20031;-74
2021/07/21 04:23:07;;;;;;;20.50;11.95;;;;;;;15.52;100.00;102062.09;5086809;28;20031;-75
2021/07/21 04:25:35;;;;;;;18.65;11.32;;;;;;;15.54;100.00;102063.63;5083012;28;20031;-74
2021/07/21 04:28:06;;;;;;;20.15;12.73;;;;;;;15.55;100.00;102064.44;5050488;28;20035;-76
2021/07/21 04:30:38;;;;;;;21.35;12.50;;;;;;;15.58;100.00;102069.47;5073226;28;20035;-75
2021/07/21 04:33:07;;;;;;;21.90;11.75;;;;;;;15.65;100.00;102067.03;5071971;28;20039;-75
2021/07/21 04:35:33;;;;;;;23.25;13.13;;;;;;;15.66;100.00;102066.91;5072292;28;20797;-73
2021/07/21 04:38:07;;;;;;;26.35;12.70;;;;;;;15.70;100.00;102080.66;5074711;28;20035;-74
2021/07/21 04:40:47;;;;;;;21.05;13.82;;;;;;;15.74;100.00;102066.19;5056171;28;20093;-76
2021/07/21 04:43:32;;;;;;;21.75;12.82;;;;;;;15.79;100.00;102077.16;5108770;28;20110;-74
2021/07/21 04:46:00;;;;;;;24.17;14.20;;;;;;;15.80;100.00;102078.81;5091546;28;20057;-74
2021/07/21 04:48:26;;;;;;;25.98;14.52;;;;;;;15.86;100.00;102075.59;5058523;28;20046;-76
2021/07/21 04:50:57;;;;;;;24.20;14.65;;;;;;;15.89;100.00;102085.03;5067178;28;20170;-74
2021/07/21 04:53:23;;;;;;;21.80;13.43;;;;;;;15.87;100.00;102094.94;5085087;28;20055;-75
2021/07/21 04:55:51;;;;;;;24.63;15.25;;;;;;;15.99;100.00;102084.97;5081313;28;20055;-75
2021/07/21 04:58:17;;;;;;;23.58;14.10;;;;;;;15.95;100.00;102087.06;5073664;28;20512;-74
2021/07/21 05:00:50;;;;;;;26.38;15.65;;;;;;;15.95;100.00;102087.06;5072782;27;20074;-75
2021/07/21 05:03:18;;;;;;;23.10;14.55;;;;;;;15.99;100.00;102101.66;5074232;28;20485;-74
2021/07/21 05:05:51;;;;;;;25.58;15.00;;;;;;;15.98;100.00;102097.38;5072756;28;20043;-74
2021/07/21 05:08:20;;;;;;;22.48;13.73;;;;;;;15.98;100.00;102102.66;5090317;28;20046;-74
2021/07/21 05:11:14;;;;;;;23.10;15.13;;;;;;;16.07;100.00;102108.88;5052619;28;20062;-75
2021/07/21 05:13:40;;;;;;;21.88;13.90;;;;;;;16.05;100.00;102111.69;5073264;28;20061;-74
2021/07/21 05:16:10;;;;;;;25.75;15.02;;;;;;;16.09;100.00;102112.22;5056460;28;20035;-74
2021/07/21 05:18:37;;;;;;;23.80;14.90;;;;;;;16.09;100.00;102110.41;5052391;28;20039;-74
2021/07/21 05:21:07;;;;;;;25.52;15.40;;;;;;;16.08;100.00;102111.38;5071290;28;20496;-74
2021/07/21 05:23:33;;;;;;;27.80;15.65;;;;;;;16.07;100.00;102107.06;5092898;28;20111;-74
2021/07/21 05:26:04;;;;;;;24.60;13.88;;;;;;;16.16;100.00;102113.25;5074114;28;20477;-74
2021/07/21 05:28:37;;;;;;;21.85;14.65;;;;;;;16.07;100.00;102117.66;5107598;28;20101;-74
2021/07/21 05:31:10;;;;;;;24.17;13.50;;;;;;;16.15;100.00;102122.19;5112352;27;20119;-74
2021/07/21 05:33:55;;;;;;;25.13;14.43;;;;;;;16.11;100.00;102110.25;5100788;28;20027;-73
2021/07/21 05:36:21;;;;;;;26.27;15.25;;;;;;;16.13;100.00;102117.06;5070801;28;20057;-74
2021/07/21 05:38:48;;;;;;;24.08;14.57;;;;;;;16.15;100.00;102123.03;5070002;28;20042;-74
2021/07/21 05:41:16;;;;;;;22.85;14.07;;;;;;;16.13;100.00;102117.06;5069213;28;20115;-75
2021/07/21 05:43:44;;;;;;;24.25;14.10;;;;;;;16.19;100.00;102118.25;5069836;28;20043;-74
2021/07/21 05:46:09;;;;;;;22.63;14.27;;;;;;;16.17;100.00;102130.00;5051799;28;20405;-74
2021/07/21 05:48:39;;;;;;;25.38;13.90;;;;;;;16.16;100.00;102121.19;5084128;28;20249;-74
2021/07/21 05:51:29;;;;;;;22.38;14.50;;;;;;;16.26;100.00;102129.09;5059679;28;20829;-74
2021/07/21 05:54:03;;;;;;;23.95;14.43;;;;;;;16.22;100.00;102123.28;5073212;28;20039;-74
2021/07/21 05:56:30;;;;;;;22.92;13.52;;;;;;;16.31;100.00;102134.75;5090220;28;20040;-73
2021/07/21 05:58:59;;;;;;;24.83;14.90;;;;;;;16.38;100.00;102129.72;5108630;28;20076;-74
2021/07/21 06:01:27;;;;;;;20.65;14.25;;;;;;;16.42;100.00;102117.81;5088668;28;20584;-74
2021/07/21 06:03:53;;;;;;;22.45;13.70;;;;;;;16.50;100.00;102120.53;5107538;28;20887;-74
2021/07/21 06:06:18;;;;;;;21.42;13.05;;;;;;;16.59;100.00;102127.56;5088584;28;20063;-73
2021/07/21 06:09:07;;;;;;;23.45;13.93;;;;;;;16.55;100.00;102137.63;5106818;28;20035;-75
2021/07/21 06:11:51;;;;;;;23.55;13.73;;;;;;;16.61;100.00;102138.84;5078984;28;20024;-75
2021/07/21 06:14:18;;;;;;;26.83;13.63;;;;;;;16.61;100.00;102140.66;5076195;28;20043;-75
2021/07/21 06:16:44;;;;;;;24.05;13.52;;;;;;;16.58;100.00;102141.00;5056920;28;20556;-75
2021/07/21 06:19:11;;;;;;;20.50;13.90;;;;;;;16.60;100.00;102136.38;5066126;28;20081;-75
2021/07/21 06:21:38;;;;;;;20.02;12.77;;;;;;;16.64;100.00;102141.19;5103939;28;20030;-75
2021/07/21 06:24:22;;;;;;;23.30;12.85;;;;;;;16.65;100.00;102147.31;5069488;28;20032;-75
2021/07/21 06:26:50;;;;;;;22.15;12.45;;;;;;;16.69;100.00;102149.53;5081533;28;20036;-75
2021/07/21 06:29:31;;;;;;;24.67;12.68;;;;;;;16.64;100.00;102150.97;5057458;28;20369;-75
2021/07/21 06:31:58;;;;;;;22.75;12.85;;;;;;;16.60;100.00;102149.63;5058467;28;20028;-75
2021/07/21 06:34:25;;;;;;;19.63;12.30;;;;;;;16.60;100.00;102154.91;5077466;28;20035;-75
2021/07/21 06:36:53;;;;;;;19.75;12.20;;;;;;;16.69;100.00;102159.31;5071786;28;20028;-74
2021/07/21 06:39:19;;;;;;;18.17;11.20;;;;;;;16.69;100.00;102161.94;5070037;28;20047;-75
2021/07/21 06:41:47;;;;;;;19.50;12.30;;;;;;;16.73;100.00;102158.81;5088249;28;20040;-74
2021/07/21 06:44:13;;;;;;;25.85;12.73;;;;;;;16.77;98.74;102163.84;5049918;28;20119;-75
2021/07/21 06:46:48;;;;;;;21.67;12.05;;;;;;;16.83;98.21;102171.19;5068566;28;20028;-75
2021/07/21 06:49:19;;;;;;;20.88;12.23;;;;;;;16.93;96.45;102167.47;5068761;28;20028;-76
2021/07/21 06:51:45;;;;;;;23.77;11.90;;;;;;;16.92;96.40;102171.09;5088357;28;20028;-75
2021/07/21 06:54:16;;;;;;;18.08;11.30;;;;;;;17.01;97.58;102182.63;5063378;27;20037;-75
2021/07/21 06:57:11;;;;;;;23.35;11.73;;;;;;;17.03;97.11;102174.50;5052780;28;20676;-75
2021/07/21 06:59:56;;;;;;;19.75;10.88;;;;;;;16.99;96.25;102184.59;5102392;27;20170;-76
2021/07/21 07:02:41;;;;;;;21.77;10.85;;;;;;;17.04;96.15;102184.13;5071733;27;20408;-75
2021/07/21 07:05:35;;;;;;;17.73;11.30;;;;;;;17.11;98.11;102183.34;5095548;27;20046;-76
2021/07/21 07:08:20;;;;;;;21.42;11.60;;;;;;;17.19;98.38;102184.41;5096579;28;20393;-75
2021/07/21 07:11:04;;;;;;;16.80;11.40;;;;;;;17.31;97.80;102188.47;5088585;28;20381;-75
2021/07/21 07:13:30;;;;;;;22.40;12.00;;;;;;;17.36;97.56;102193.28;5070514;28;20047;-75
2021/07/21 07:15:55;;;;;;;21.92;12.20;;;;;;;17.38;97.83;102199.25;5087936;28;20808;-76
2021/07/21 07:18:21;;;;;;;17.50;11.07;;;;;;;17.47;98.23;102196.50;5049112;28;20043;-75
2021/07/21 07:20:48;;;;;;;21.88;11.15;;;;;;;17.55;96.00;102200.19;5086772;28;20042;-76
2021/07/21 07:23:14;;;;;;;18.45;11.48;;;;;;;17.60;94.72;102192.59;5088043;28;20034;-75
2021/07/21 07:25:41;;;;;;;18.08;10.43;;;;;;;17.65;92.85;102192.94;5088642;28;20031;-75
2021/07/21 07:28:07;;;;;;;19.88;11.10;;;;;;;17.75;93.61;102185.72;5049589;28;20036;-75
2021/07/21 07:30:34;;;;;;;18.25;11.27;;;;;;;17.87;91.66;102188.94;5092475;28;20027;-75
2021/07/21 07:33:00;;;;;;;17.55;11.13;;;;;;;17.97;91.52;102194.97;5071902;28;20043;-75
2021/07/21 07:35:26;;;;;;;18.65;11.43;;;;;;;18.09;91.96;102191.03;5052714;28;20035;-75
2021/07/21 07:37:51;;;;;;;20.75;11.70;;;;;;;18.14;90.36;102182.59;5107168;28;20043;-75
2021/07/21 07:40:18;;;;;;;18.20;11.52;;;;;;;18.21;92.76;102190.72;5106508;28;20581;-75
2021/07/21 07:42:44;;;;;;;17.35;10.73;;;;;;;18.26;89.75;102191.91;5070745;28;20356;-75
2021/07/21 07:45:11;;;;;;;21.13;10.85;;;;;;;18.18;93.27;102191.06;5073779;28;20485;-75
2021/07/21 07:47:36;;;;;;;18.73;11.88;;;;;;;18.06;92.61;102195.81;5062368;28;20044;-75
2021/07/21 07:50:06;;;;;;;19.00;11.25;;;;;;;17.89;94.61;102201.09;5054038;28;20276;-75
2021/07/21 07:52:33;;;;;;;19.17;11.70;;;;;;;17.80;95.29;102199.34;5054241;28;20123;-75
2021/07/21 07:54:59;;;;;;;17.90;10.88;;;;;;;17.72;95.91;102196.63;5086829;28;20076;-75
2021/07/21 07:57:25;;;;;;;15.20;11.07;;;;;;;17.66;96.83;102195.44;5065231;28;20389;-75
2021/07/21 07:59:50;;;;;;;22.58;11.75;;;;;;;17.60;97.56;102200.56;5071379;28;20064;-73
2021/07/21 08:02:16;;;;;;;19.88;10.90;;;;;;;17.49;98.20;102191.06;5088342;28;20499;-75
2021/07/21 08:04:42;;;;;;;22.52;11.35;;;;;;;17.47;97.07;102196.50;5075457;28;20076;-75
2021/07/21 08:07:07;;;;;;;23.15;11.73;;;;;;;17.46;98.03;102197.50;5054588;28;20032;-75
2021/07/21 08:09:33;;;;;;;18.92;11.63;;;;;;;17.38;98.20;102191.31;5075496;28;20051;-73
2021/07/21 08:11:59;;;;;;;19.10;11.63;;;;;;;17.47;97.26;102195.69;5074672;28;20066;-73
2021/07/21 08:14:26;;;;;;;19.05;11.57;;;;;;;17.54;96.60;102201.16;5053920;28;20058;-73
2021/07/21 08:16:53;;;;;;;19.30;11.43;;;;;;;17.60;95.27;102200.56;5057679;28;20040;-74
2021/07/21 08:19:19;;;;;;;18.65;10.75;;;;;;;17.60;95.51;102203.22;5052185;28;20095;-74
2021/07/21 08:21:46;;;;;;;19.27;11.57;;;;;;;17.60;96.17;102195.25;5067160;28;20067;-75
2021/07/21 08:24:14;;;;;;;22.95;11.50;;;;;;;17.73;96.98;102195.66;5078054;27;20065;-75
2021/07/21 08:26:40;;;;;;;18.75;11.05;;;;;;;17.70;96.03;102198.63;5074655;28;20031;-73
2021/07/21 08:29:05;;;;;;;18.70;11.85;;;;;;;17.64;95.23;102207.22;5075308;28;20052;-74
2021/07/21 08:31:31;;;;;;;23.88;11.77;;;;;;;17.65;97.98;102200.91;5127205;27;20031;-74
2021/07/21 08:34:01;;;;;;;17.95;11.30;;;;;;;17.56;99.34;102201.88;5078272;27;20039;-73
2021/07/21 08:36:29;;;;;;;22.23;12.57;;;;;;;17.45;97.27;102201.13;5078210;27;20031;-73
2021/07/21 08:38:54;;;;;;;15.15;10.68;;;;;;;17.29;99.17;102212.47;5069889;28;20031;-76
2021/07/21 08:41:22;;;;;;;22.02;12.90;;;;;;;17.40;100.00;102208.72;5074723;28;20046;-74
2021/07/21 08:43:48;;;;;;;21.35;11.73;;;;;;;17.40;100.00;102214.03;5058084;28;20043;-75
2021/07/21 08:46:14;;;;;;;20.40;11.18;;;;;;;17.47;99.45;102215.06;5074481;28;20035;-75
2021/07/21 08:48:40;;;;;;;15.15;10.00;;;;;;;17.63;98.58;102209.06;5088843;28;20059;-75
2021/07/21 08:51:09;;;;;;;15.40;9.40;;;;;;;17.88;97.00;102215.34;5060387;28;20467;-75
2021/07/21 08:53:36;;;;;;;12.85;8.55;;;;;;;18.00;92.90;102220.34;5075015;28;20027;-75
2021/07/21 08:56:02;;;;;;;14.68;8.38;;;;;;;18.12;93.46;102228.84;5057680;28;20035;-76
2021/07/21 08:58:28;;;;;;;11.40;8.27;;;;;;;18.16;91.40;102217.78;5074125;28;20039;-75
2021/07/21 09:00:54;;;;;;;13.10;7.18;;;;;;;18.19;90.27;102225.41;5086824;28;20047;-75
2021/07/21 09:03:21;;;;;;;13.38;7.75;;;;;;;18.22;90.95;102224.28;5060385;28;20032;-75
2021/07/21 09:05:53;;;;;;;10.45;7.40;;;;;;;18.22;93.73;102234.88;5067888;27;20035;-75
2021/07/21 09:08:19;;;;;;;14.82;7.72;;;;;;;18.27;94.52;102236.06;5094978;27;20098;-75
2021/07/21 09:10:47;;;;;;;14.00;7.45;;;;;;;18.25;90.84;102239.88;5111912;27;20035;-76
2021/07/21 09:13:16;;;;;;;8.60;6.55;;;;;;;18.19;91.31;102230.72;5077346;27;20050;-75
2021/07/21 09:15:46;;;;;;;12.13;7.07;;;;;;;18.21;92.14;102239.34;5111712;27;20034;-76
2021/07/21 09:18:16;;;;;;;9.25;6.15;;;;;;;18.09;85.77;102243.31;5088458;28;20496;-74
2021/07/21 09:21:07;;;;;;;11.10;6.18;;;;;;;18.11;89.52;102243.97;5071024;28;20036;-76
2021/07/21 09:23:40;;;;;;;9.02;5.97;;;;;;;18.13;88.30;102251.78;5074278;28;20062;-75
2021/07/21 09:26:12;;;;;;;9.43;5.70;;;;;;;18.12;88.33;102236.81;5057514;28;20046;-75
2021/07/21 09:28:42;;;;;;;7.75;6.18;;;;;;;18.12;92.33;102245.66;5053804;28;20572;-73
2021/07/21 09:31:15;;;;;;;9.75;6.32;;;;;;;18.00;88.90;102247.72;5075800;27;20031;-74
2021/07/21 09:33:45;;;;;;;7.60;5.45;;;;;;;18.05;86.34;102242.78;5040498;28;20086;-74
2021/07/21 09:36:19;;;;;;;10.00;5.82;;;;;;;18.11;87.32;102243.97;5053502;28;20036;-74
2021/07/21 09:38:46;;;;;;;7.78;6.00;;;;;;;18.35;89.72;102250.38;5038075;28;20898;-76
2021/07/21 09:41:14;;;;;;;12.43;6.18;;;;;;;18.43;89.74;102261.00;5053924;28;20063;-73
2021/07/21 09:43:40;;;;;;;12.38;6.63;;;;;;;18.47;86.97;102263.19;5065234;28;20047;-75
2021/07/21 09:46:08;;;;;;;11.40;7.00;;;;;;;18.63;90.33;102264.25;5073850;28;20043;-74
2021/07/21 09:48:45;;;;;;;7.78;5.38;;;;;;;18.64;87.01;102263.22;5105893;28;20036;-74
2021/07/21 09:51:25;;;;;;;7.80;5.00;;;;;;;18.54;87.67;102275.84;5056781;28;20384;-75
2021/07/21 09:53:51;;;;;;;10.15;5.53;;;;;;;18.43;87.94;102267.16;5073756;28;20031;-74
2021/07/21 09:56:32;;;;;;;9.05;5.97;;;;;;;18.44;87.72;102257.34;5056061;28;20881;-75
2021/07/21 09:59:18;;;;;;;9.25;6.32;;;;;;;18.54;88.33;102274.00;5087300;28;20066;-74
2021/07/21 10:01:43;;;;;;;6.53;5.50;;;;;;;18.73;87.96;102266.75;5073253;28;20040;-74
2021/07/21 10:04:09;;;;;;;7.90;6.13;;;;;;;18.79;85.09;102266.91;5076241;27;20038;-74
2021/07/21 10:06:41;;;;;;;12.90;6.20;;;;;;;18.81;86.42;102270.25;5110943;27;20433;-76
2021/07/21 10:09:07;;;;;;;8.38;6.07;;;;;;;18.80;85.62;102262.44;5068805;28;20036;-74
2021/07/21 10:11:36;;;;;;;6.72;5.82;;;;;;;18.82;86.72;102258.66;5071742;28;20039;-76
2021/07/21 10:14:02;;;;;;;10.70;5.53;;;;;;;18.95;84.20;102268.81;5090469;28;20043;-76
2021/07/21 10:16:36;;;;;;;7.07;5.43;;;;;;;18.98;83.82;102254.34;5073284;28;20047;-74
2021/07/21 10:19:08;;;;;;;8.68;5.70;;;;;;;18.99;81.69;102256.84;5072211;28;20031;-75
2021/07/21 10:21:35;;;;;;;11.73;6.18;;;;;;;19.08;85.79;102248.84;5052530;28;20046;-75
2021/07/21 10:24:02;;;;;;;8.35;5.53;;;;;;;19.11;85.80;102259.16;5055245;28;20055;-74
2021/07/21 10:26:28;;;;;;;8.52;6.05;;;;;;;19.04;81.31;102254.50;5088452;28;20093;-75
2021/07/21 10:28:58;;;;;;;9.85;6.63;;;;;;;19.12;86.30;102252.81;5054672;27;20028;-75
2021/07/21 10:31:25;;;;;;;9.25;6.22;;;;;;;19.38;84.92;102247.34;5086392;28;20027;-74
2021/07/21 10:33:52;;;;;;;9.13;6.70;;;;;;;19.52;83.52;102251.97;5090645;28;20036;-75
2021/07/21 10:36:19;;;;;;;9.25;6.38;;;;;;;19.39;80.79;102241.03;5060942;28;20055;-76
2021/07/21 10:38:45;;;;;;;10.43;6.53;;;;;;;19.32;82.99;102248.00;5086613;28;20032;-74
2021/07/21 10:41:13;;;;;;;11.40;6.18;;;;;;;19.05;81.34;102242.03;5070266;27;20093;-75
2021/07/21 10:43:43;;;;;;;10.18;6.45;;;;;;;19.07;82.39;102234.72;5079754;28;20042;-75
2021/07/21 10:46:37;;;;;;;11.23;5.97;;;;;;;19.28;84.15;102241.38;5088796;28;20521;-75
2021/07/21 10:49:22;;;;;;;7.43;5.82;;;;;;;19.57;83.86;102227.50;5039211;28;20063;-74
2021/07/21 10:55:02;;;;;;;6.85;5.60;;;;;;;19.99;79.98;102239.75;5097590;28;20035;-74
2021/07/21 11:00:22;;;;;;;7.88;5.70;;;;;;;19.98;79.35;102243.38;5072812;28;20043;-76
2021/07/21 11:02:49;;;;;;;8.25;5.95;;;;;;;19.80;83.15;102239.13;5052010;28;20182;-73
2021/07/21 11:05:50;;;;;;;8.00;5.38;;;;;;;19.85;81.03;102249.25;5071138;28;20031;-74
2021/07/21 11:08:21;;;;;;;8.07;5.72;;;;;;;19.88;79.43;102237.44;5093210;28;20039;-74
2021/07/21 11:10:49;;;;;;;8.52;5.35;;;;;;;19.95;79.41;102241.91;5073274;28;20030;-75
2021/07/21 11:13:27;;;;;;;8.52;5.68;;;;;;;20.01;81.54;102248.38;5056041;28;20035;-74
2021/07/21 11:15:53;;;;;;;9.55;5.72;;;;;;;19.96;78.89;102242.75;5068196;28;20040;-77
2021/07/21 11:18:22;;;;;;;11.32;5.88;;;;;;;19.86;78.56;102245.59;5061764;28;20031;-76
2021/07/21 11:21:12;;;;;;;7.20;5.50;;;;;;;19.96;78.72;102242.75;5070444;28;20055;-75
2021/07/21 11:23:53;;;;;;;8.05;6.00;;;;;;;19.94;79.40;102242.91;5088708;28;20127;-75
2021/07/21 11:26:34;;;;;;;8.57;4.90;;;;;;;20.00;79.34;102244.03;5069886;28;20108;-76
2021/07/21 11:29:29;;;;;;;5.60;4.78;;;;;;;19.86;78.33;102240.28;5081459;28;20063;-76
2021/07/21 11:31:54;;;;;;;7.13;4.60;;;;;;;19.82;77.29;102237.13;5069093;28;20038;-76
2021/07/21 11:34:33;;;;;;;5.20;4.25;;;;;;;19.75;77.74;102238.81;5054526;28;20039;-75
2021/07/21 11:37:03;;;;;;;8.57;4.82;;;;;;;19.72;80.72;102233.84;5055694;28;20028;-75
2021/07/21 11:39:51;;;;;;;8.80;4.63;;;;;;;19.85;78.27;102238.59;5075933;28;20040;-76